Time;durP1;ratioP1;P1;durP2;ratioP2;P2;SDS_P1;SDS_P2;PMS_P1;PMS_P2;Temp;Humidity;BMP_temperature;BMP_pressure;BME280_temperature;BME280_humidity;BME280_pressure;Samples;Min_cycle;Max_cycle;Signal;HPM_P1;HPM_P2
2021/12/28 00:00:31;;;;;;;13.47;10.13;;;;;;;5.31;70.76;101121.44;2079676;28;20260;-68
2021/12/28 00:01:31;;;;;;;13.05;9.48;;;;;;;4.96;70.98;101096.50;2081174;28;20706;-68
2021/12/28 00:02:32;;;;;;;12.97;9.83;;;;;;;5.39;70.72;101136.81;2081673;28;20259;-68
2021/12/28 00:03:34;;;;;;;15.00;10.07;;;;;;;5.39;71.47;101136.81;2081843;28;20275;-68
2021/12/28 00:04:34;;;;;;;12.98;9.55;;;;;;;5.34;71.31;101137.16;2081498;28;20639;-68
2021/12/28 00:05:35;;;;;;;13.63;10.03;;;;;;;5.33;71.44;101143.84;2081824;28;20208;-68
2021/12/28 00:06:35;;;;;;;14.40;10.17;;;;;;;5.32;71.21;101139.50;2081569;28;20508;-68
2021/12/28 00:07:37;;;;;;;13.87;9.80;;;;;;;5.40;70.77;101141.94;2082188;28;20250;-68
2021/12/28 00:08:38;;;;;;;13.63;10.35;;;;;;;3.99;70.48;100916.28;2081544;28;20243;-68
2021/12/28 00:09:39;;;;;;;14.73;9.82;;;;;;;5.33;71.34;101141.88;2081168;28;20188;-68
2021/12/28 00:10:39;;;;;;;13.57;10.00;;;;;;;5.31;71.00;101144.22;2079413;28;20185;-68
2021/12/28 00:11:40;;;;;;;13.70;9.13;;;;;;;4.21;70.62;100967.41;2081354;28;20252;-68
2021/12/28 00:12:41;;;;;;;14.73;10.00;;;;;;;5.29;70.99;101132.81;2081390;28;20243;-68
2021/12/28 00:13:44;;;;;;;13.52;9.80;;;;;;;5.24;71.65;101130.41;2081958;28;20173;-68
2021/12/28 00:15:01;;;;;;;14.40;10.70;;;;;;;5.26;71.58;101138.28;2081433;28;20191;-68
2021/12/28 00:18:25;;;;;;;14.95;10.13;;;;;;;5.23;71.41;101141.81;2081560;28;20615;-68
2021/12/28 00:19:26;;;;;;;14.47;10.10;;;;;;;5.07;71.43;101125.63;2081803;28;20177;-68
2021/12/28 00:20:28;;;;;;;15.43;10.57;;;;;;;5.20;71.35;101140.63;2080041;28;20252;-68
2021/12/28 00:21:29;;;;;;;14.82;11.05;;;;;;;5.03;71.17;101115.78;2081773;28;20202;-68
2021/12/28 00:22:30;;;;;;;13.93;11.07;;;;;;;4.96;71.49;101093.75;2080765;28;20657;-68
2021/12/28 00:23:38;;;;;;;14.83;10.77;;;;;;;5.22;71.10;101131.97;2081231;28;20214;-68
2021/12/28 00:24:39;;;;;;;14.15;10.73;;;;;;;5.15;70.70;101120.97;2081385;28;20251;-68
2021/12/28 00:25:41;;;;;;;15.33;10.87;;;;;;;4.76;70.60;101054.81;2081824;28;20264;-68
2021/12/28 00:26:41;;;;;;;15.18;10.85;;;;;;;5.21;70.85;101128.47;2081312;28;20188;-68
2021/12/28 00:27:42;;;;;;;15.70;11.30;;;;;;;5.19;70.83;101136.28;2081866;28;20646;-68
2021/12/28 00:28:45;;;;;;;14.67;10.63;;;;;;;5.09;71.55;101123.31;2081398;28;20175;-68
2021/12/28 00:29:46;;;;;;;14.50;10.75;;;;;;;5.05;71.65;101105.19;2081206;28;20423;-68
2021/12/28 00:30:47;;;;;;;14.85;10.77;;;;;;;4.84;70.92;101078.41;2080280;28;20237;-68
2021/12/28 00:31:48;;;;;;;14.82;11.00;;;;;;;5.16;71.12;101133.53;2081640;28;20256;-68
2021/12/28 00:32:53;;;;;;;14.47;10.80;;;;;;;5.12;70.90;101119.78;2081182;28;20646;-68
2021/12/28 00:33:57;;;;;;;13.82;10.65;;;;;;;4.80;70.78;101074.03;2081737;28;20222;-68
2021/12/28 00:34:57;;;;;;;13.20;9.85;;;;;;;5.11;71.58;101126.44;2080647;28;20180;-68
2021/12/28 00:35:58;;;;;;;13.80;10.60;;;;;;;5.02;71.50;101128.72;2081238;28;20180;-68
2021/12/28 00:36:58;;;;;;;15.90;10.90;;;;;;;5.03;71.28;101124.81;2081364;28;20172;-68
2021/12/28 00:38:00;;;;;;;14.43;10.97;;;;;;;5.07;71.27;101135.84;2080998;28;20177;-68
2021/12/28 00:39:01;;;;;;;16.60;11.10;;;;;;;5.09;71.63;101138.97;2081203;28;20177;-68
2021/12/28 00:40:03;;;;;;;14.80;11.07;;;;;;;5.09;71.14;101142.53;2080754;28;20172;-68
2021/12/28 00:41:05;;;;;;;17.52;11.68;;;;;;;5.07;71.89;101147.59;2080624;28;20234;-68
2021/12/28 00:42:07;;;;;;;15.43;10.80;;;;;;;5.05;71.65;101146.41;2081526;28;20666;-68
2021/12/28 00:43:08;;;;;;;15.38;11.80;;;;;;;4.96;71.38;101138.50;2081564;28;20180;-68
2021/12/28 00:44:08;;;;;;;16.73;11.47;;;;;;;5.04;71.09;101142.88;2081548;28;20173;-68
2021/12/28 00:45:09;;;;;;;15.70;10.90;;;;;;;5.06;71.68;101139.72;2081431;28;20167;-68
2021/12/28 00:46:10;;;;;;;13.52;10.40;;;;;;;5.03;71.31;101141.28;2081599;28;20458;-68
2021/12/28 00:47:11;;;;;;;14.88;11.10;;;;;;;5.00;71.88;101133.03;2081491;28;20209;-68
2021/12/28 00:48:12;;;;;;;12.83;10.37;;;;;;;4.99;71.72;101140.50;2081430;28;20180;-68
2021/12/28 00:49:12;;;;;;;13.93;9.97;;;;;;;4.97;71.75;101134.56;2081422;28;20261;-68
2021/12/28 00:50:15;;;;;;;15.37;10.40;;;;;;;4.27;71.21;101034.44;2080665;28;20197;-68
2021/12/28 00:51:16;;;;;;;12.73;10.02;;;;;;;4.90;71.55;101134.53;2081033;28;20184;-68
2021/12/28 00:52:16;;;;;;;14.33;10.97;;;;;;;4.87;71.33;101138.03;2081371;28;20721;-68
2021/12/28 00:53:17;;;;;;;14.23;10.67;;;;;;;4.68;71.57;101112.78;2081242;28;20186;-68
2021/12/28 00:54:17;;;;;;;15.87;11.33;;;;;;;4.80;71.43;101128.97;2081492;28;20177;-68
2021/12/28 00:55:19;;;;;;;14.70;10.50;;;;;;;4.77;71.70;101127.00;2081500;28;20187;-68
2021/12/28 00:56:19;;;;;;;15.50;10.88;;;;;;;4.53;71.28;101100.13;2081275;28;20204;-68
2021/12/28 00:57:20;;;;;;;15.13;11.23;;;;;;;4.71;71.74;101128.50;2081448;28;20170;-68
2021/12/28 00:58:21;;;;;;;14.10;10.93;;;;;;;4.68;71.27;101126.53;2081306;28;20210;-68
2021/12/28 00:59:22;;;;;;;15.90;10.48;;;;;;;4.04;71.99;101034.66;2081479;28;20202;-68
2021/12/28 01:00:35;;;;;;;15.63;10.87;;;;;;;4.68;71.92;101126.53;2079671;28;20241;-68
2021/12/28 01:01:35;;;;;;;14.23;10.57;;;;;;;4.66;71.58;101124.16;2081465;28;20208;-68
2021/12/28 01:02:37;;;;;;;15.47;10.77;;;;;;;4.62;72.15;101122.56;2081053;28;20189;-68
2021/12/28 01:03:38;;;;;;;13.70;10.48;;;;;;;4.61;72.26;101124.50;2080755;28;20247;-68
2021/12/28 01:04:38;;;;;;;15.27;10.87;;;;;;;4.58;72.42;101121.72;2080395;28;20181;-68
2021/12/28 01:05:39;;;;;;;15.10;10.77;;;;;;;4.57;72.25;101111.94;2081427;28;20207;-68
2021/12/28 01:06:40;;;;;;;15.93;10.87;;;;;;;4.55;72.10;101119.72;2081148;28;20650;-68
2021/12/28 01:07:41;;;;;;;15.23;10.95;;;;;;;4.54;72.18;101126.41;2081460;28;20662;-68
2021/12/28 01:08:42;;;;;;;13.67;10.07;;;;;;;4.51;71.77;101127.94;2080992;28;20581;-68
2021/12/28 01:09:44;;;;;;;14.37;10.20;;;;;;;4.53;72.07;101125.63;2081163;28;20184;-68
2021/12/28 01:10:49;;;;;;;14.57;10.52;;;;;;;4.50;71.79;101125.56;2079237;28;20269;-68
2021/12/28 01:11:49;;;;;;;14.00;10.50;;;;;;;4.48;71.85;101122.44;2080602;28;20259;-68
2021/12/28 01:12:52;;;;;;;14.43;10.37;;;;;;;4.46;71.72;101120.06;2081099;28;20657;-68
2021/12/28 01:13:52;;;;;;;13.35;10.23;;;;;;;4.46;71.87;101124.78;2081408;28;20179;-68
2021/12/28 01:14:53;;;;;;;14.57;10.53;;;;;;;4.44;72.05;101127.09;2080863;28;20184;-68
2021/12/28 01:15:54;;;;;;;15.23;10.90;;;;;;;4.40;71.93;101118.84;2081422;28;20342;-68
2021/12/28 01:16:55;;;;;;;14.40;10.00;;;;;;;3.48;72.08;100983.97;2080231;28;20573;-68
2021/12/28 01:17:56;;;;;;;16.35;11.00;;;;;;;4.42;72.10;101121.22;2080808;28;20223;-68
2021/12/28 01:18:56;;;;;;;15.83;10.70;;;;;;;3.95;71.52;101052.59;2081013;28;20196;-68
2021/12/28 01:19:57;;;;;;;13.83;9.73;;;;;;;4.02;71.98;101058.13;2080627;28;20715;-68
2021/12/28 01:20:57;;;;;;;13.70;10.57;;;;;;;3.87;71.59;101039.97;2080319;28;20180;-68
2021/12/28 01:22:01;;;;;;;13.87;10.13;;;;;;;4.12;71.82;101079.38;2081370;28;20176;-68
2021/12/28 01:23:03;;;;;;;14.40;10.63;;;;;;;3.02;71.60;100919.69;2080993;28;20190;-68
2021/12/28 01:24:04;;;;;;;13.50;10.18;;;;;;;4.19;71.60;101102.19;2081141;28;20180;-68
2021/12/28 01:25:06;;;;;;;12.10;9.33;;;;;;;4.11;71.46;101100.53;2081072;28;20173;-68
2021/12/28 01:26:07;;;;;;;13.10;10.00;;;;;;;4.23;71.75;101126.91;2081198;28;20247;-68
2021/12/28 01:27:08;;;;;;;13.23;9.40;;;;;;;4.09;71.76;101111.09;2081064;28;20180;-68
2021/12/28 01:28:09;;;;;;;16.67;9.95;;;;;;;4.16;72.06;101118.59;2080403;28;20204;-68
2021/12/28 01:29:10;;;;;;;14.10;10.57;;;;;;;2.97;71.59;100936.47;2080302;28;20678;-68
2021/12/28 01:30:14;;;;;;;12.53;9.40;;;;;;;4.12;72.16;101126.81;2079589;28;21054;-67
2021/12/28 01:31:14;;;;;;;15.85;10.05;;;;;;;4.13;72.11;101127.59;2079817;28;20226;-68
2021/12/28 01:32:15;;;;;;;11.93;8.23;;;;;;;4.03;71.50;101104.38;2080900;28;20178;-68
2021/12/28 01:33:16;;;;;;;14.33;9.67;;;;;;;3.91;71.11;101090.16;2081001;28;20210;-68
2021/12/28 01:34:17;;;;;;;11.95;8.80;;;;;;;4.13;71.40;101124.84;2080483;28;20270;-68
2021/12/28 01:35:19;;;;;;;11.88;8.70;;;;;;;4.12;70.90;101126.81;2080397;28;20192;-68
2021/12/28 01:36:20;;;;;;;14.55;9.57;;;;;;;4.11;71.44;101125.22;2080315;28;20653;-68
2021/12/28 01:37:21;;;;;;;11.77;9.07;;;;;;;4.10;71.94;101120.91;2081119;28;20175;-68
2021/12/28 01:38:21;;;;;;;12.47;9.30;;;;;;;4.10;71.84;101122.88;2080858;28;20246;-68
2021/12/28 01:39:22;;;;;;;13.40;8.77;;;;;;;4.11;71.64;101130.69;2081192;28;20255;-68
2021/12/28 01:40:26;;;;;;;12.20;9.17;;;;;;;4.11;71.28;101127.94;2079585;28;20189;-68
2021/12/28 01:41:26;;;;;;;11.75;8.73;;;;;;;4.08;71.40;101122.44;2081081;28;20296;-68
2021/12/28 01:42:28;;;;;;;12.77;8.70;;;;;;;4.08;72.09;101122.44;2080743;28;20188;-68
2021/12/28 01:43:29;;;;;;;14.85;9.32;;;;;;;4.07;71.82;101115.38;2081159;28;20616;-68
2021/12/28 01:44:29;;;;;;;13.03;9.27;;;;;;;4.09;71.83;101105.59;2080719;28;20175;-68
2021/12/28 01:46:01;;;;;;;13.30;9.40;;;;;;;4.14;71.77;101110.75;2081083;28;20179;-68
2021/12/28 01:47:03;;;;;;;12.85;8.90;;;;;;;4.16;71.66;101113.13;2080913;28;20157;-68
2021/12/28 01:48:05;;;;;;;12.65;9.05;;;;;;;4.17;71.78;101111.97;2081052;28;20219;-68
2021/12/28 01:49:11;;;;;;;12.15;9.52;;;;;;;3.68;72.22;101035.47;2081009;28;20699;-68
2021/12/28 01:50:12;;;;;;;12.02;9.18;;;;;;;4.10;72.35;101103.66;2080144;28;20447;-68
2021/12/28 01:51:17;;;;;;;11.90;8.90;;;;;;;4.20;72.27;101119.44;2080307;28;20242;-68
2021/12/28 01:52:18;;;;;;;12.07;8.60;;;;;;;4.21;72.41;101151.19;2080875;28;20534;-68
2021/12/28 01:53:18;;;;;;;12.33;8.57;;;;;;;4.20;72.04;101130.41;2080801;28;20215;-68
2021/12/28 01:54:20;;;;;;;12.57;8.90;;;;;;;4.19;72.58;101148.00;2080907;28;20259;-68
2021/12/28 01:55:20;;;;;;;13.73;9.63;;;;;;;4.23;72.69;101122.22;2081011;28;20267;-68
2021/12/28 01:56:28;;;;;;;13.73;9.53;;;;;;;4.24;72.65;101123.78;2080714;28;20188;-68
2021/12/28 01:57:28;;;;;;;13.45;9.32;;;;;;;4.25;72.87;101111.63;2080950;28;20180;-68
2021/12/28 01:58:29;;;;;;;14.10;8.97;;;;;;;4.27;72.66;101120.28;2080707;28;20311;-68
2021/12/28 01:59:30;;;;;;;12.23;9.10;;;;;;;4.28;73.10;101116.38;2081008;28;20176;-68
2021/12/28 02:00:30;;;;;;;12.87;9.17;;;;;;;2.84;72.54;100883.13;2079249;28;20210;-68
2021/12/28 02:01:32;;;;;;;12.80;9.67;;;;;;;4.31;72.95;101109.34;2081035;28;20224;-68
2021/12/28 02:02:32;;;;;;;11.65;9.02;;;;;;;4.29;72.72;101123.44;2080691;28;20199;-68
2021/12/28 02:03:35;;;;;;;13.57;9.60;;;;;;;4.05;72.69;101087.56;2080767;28;20231;-68
2021/12/28 02:04:35;;;;;;;13.00;9.27;;;;;;;4.35;72.95;101115.63;2080506;28;20265;-68
2021/12/28 02:05:36;;;;;;;12.10;8.53;;;;;;;4.36;72.80;101117.25;2081139;28;20770;-68
2021/12/28 02:06:36;;;;;;;12.43;8.83;;;;;;;4.32;72.79;101100.72;2080623;28;20188;-68
2021/12/28 02:07:37;;;;;;;13.57;9.27;;;;;;;4.42;72.76;101119.22;2081176;28;20180;-68
2021/12/28 02:08:39;;;;;;;13.20;9.23;;;;;;;4.41;72.31;101117.66;2080658;28;20544;-68
2021/12/28 02:09:39;;;;;;;12.13;8.77;;;;;;;4.37;72.43;101105.84;2080853;28;20207;-68
2021/12/28 02:10:42;;;;;;;12.03;8.73;;;;;;;4.31;72.75;101109.34;2079337;28;20245;-68
2021/12/28 02:11:43;;;;;;;12.63;9.07;;;;;;;4.40;72.87;101107.84;2080825;28;20165;-68
2021/12/28 02:12:43;;;;;;;13.50;9.60;;;;;;;4.35;72.78;101093.69;2080536;28;20181;-68
2021/12/28 02:13:45;;;;;;;13.20;8.83;;;;;;;4.36;72.95;101101.53;2081038;28;20211;-68
2021/12/28 02:14:45;;;;;;;13.48;8.98;;;;;;;4.38;72.59;101096.50;2080587;28;20658;-68
2021/12/28 02:15:46;;;;;;;14.23;9.17;;;;;;;4.40;72.50;101105.13;2081060;28;20611;-68
2021/12/28 02:16:48;;;;;;;13.43;9.40;;;;;;;4.41;73.10;101105.91;2075139;28;21501;-68
2021/12/28 02:17:48;;;;;;;13.98;10.32;;;;;;;4.45;73.17;101095.72;2081033;28;20184;-68
2021/12/28 02:18:49;;;;;;;14.33;9.63;;;;;;;3.23;72.70;100906.25;2080514;28;20184;-68
2021/12/28 02:19:50;;;;;;;12.43;9.47;;;;;;;4.48;72.42;101098.53;2080912;28;20176;-68
2021/12/28 02:20:51;;;;;;;15.53;10.27;;;;;;;4.48;72.62;101111.47;2079379;28;20232;-68
2021/12/28 02:21:52;;;;;;;12.75;9.60;;;;;;;4.51;72.63;101102.47;2080925;28;20276;-68
2021/12/28 02:22:52;;;;;;;13.50;9.17;;;;;;;4.53;72.85;101094.63;2080548;28;20238;-68
2021/12/28 02:23:53;;;;;;;13.10;8.63;;;;;;;4.55;72.89;101097.78;2096789;28;20660;-68
2021/12/28 02:24:53;;;;;;;13.17;9.60;;;;;;;4.58;72.92;101089.59;2096491;28;20703;-68
2021/12/28 02:25:54;;;;;;;12.43;9.03;;;;;;;3.80;72.57;100980.38;2081003;28;20179;-68
2021/12/28 02:26:54;;;;;;;14.20;9.50;;;;;;;4.46;72.97;101083.63;2080598;28;20567;-68
2021/12/28 02:27:55;;;;;;;12.40;9.20;;;;;;;4.53;73.31;101098.19;2080866;28;20180;-68
2021/12/28 02:28:56;;;;;;;13.30;9.57;;;;;;;4.56;73.25;101093.88;2080509;28;20173;-68
2021/12/28 02:29:57;;;;;;;13.20;9.52;;;;;;;4.36;72.97;101074.09;2079483;28;20181;-68
2021/12/28 02:30:58;;;;;;;13.43;9.70;;;;;;;4.58;72.49;101111.56;2079324;28;20722;-68
2021/12/28 02:31:59;;;;;;;12.52;9.45;;;;;;;4.59;73.00;101093.91;2080089;28;20177;-68
2021/12/28 02:33:00;;;;;;;12.93;9.43;;;;;;;3.96;72.82;100996.56;2079877;28;20766;-67
2021/12/28 02:34:04;;;;;;;12.30;9.30;;;;;;;4.60;72.90;101089.19;2080747;28;20180;-67
2021/12/28 02:35:17;;;;;;;12.65;9.52;;;;;;;4.62;72.80;101090.38;2080642;28;20165;-67
2021/12/28 02:36:18;;;;;;;12.27;9.02;;;;;;;4.36;72.99;101057.66;2080905;28;20193;-67
2021/12/28 02:37:18;;;;;;;13.05;9.27;;;;;;;4.57;72.75;101082.50;2080728;28;20192;-68
2021/12/28 02:38:19;;;;;;;13.53;8.97;;;;;;;4.60;72.86;101095.47;2080764;28;20184;-68
2021/12/28 02:39:20;;;;;;;14.10;10.03;;;;;;;4.62;73.00;101089.63;2080939;28;20169;-67
2021/12/28 02:40:26;;;;;;;15.50;9.90;;;;;;;4.64;72.92;101079.03;2079297;28;20181;-68
2021/12/28 02:41:26;;;;;;;15.57;10.02;;;;;;;4.65;72.94;101078.66;2080727;28;20584;-68
2021/12/28 02:42:27;;;;;;;12.43;8.87;;;;;;;4.67;73.07;101072.78;2080392;28;20204;-68
2021/12/28 02:43:28;;;;;;;14.13;9.57;;;;;;;4.68;72.62;101072.41;2080855;28;20670;-68
2021/12/28 02:44:28;;;;;;;15.03;10.43;;;;;;;4.69;72.73;101076.72;2080564;28;20184;-68
2021/12/28 02:45:31;;;;;;;16.53;9.93;;;;;;;4.69;72.65;101063.00;2080830;28;20184;-68
2021/12/28 02:46:32;;;;;;;13.27;10.13;;;;;;;4.33;72.79;101024.69;2080426;28;20176;-68
2021/12/28 02:47:33;;;;;;;12.77;9.53;;;;;;;4.76;72.53;101079.50;2080810;28;20729;-68
2021/12/28 02:48:35;;;;;;;11.25;9.00;;;;;;;4.77;72.87;101078.34;2080494;28;20176;-68
2021/12/28 02:49:37;;;;;;;14.60;10.15;;;;;;;4.78;72.55;101082.66;2080954;28;20183;-68
2021/12/28 02:50:42;;;;;;;13.60;9.65;;;;;;;4.76;72.48;101070.47;2079160;28;20521;-68
2021/12/28 02:51:42;;;;;;;13.63;9.90;;;;;;;4.32;72.57;101001.94;2080816;28;20180;-68
2021/12/28 02:52:43;;;;;;;13.13;9.67;;;;;;;4.77;72.30;101077.56;2080279;28;20211;-68
2021/12/28 02:53:45;;;;;;;13.47;9.97;;;;;;;4.42;72.56;101025.16;2080139;28;20187;-68
2021/12/28 02:54:46;;;;;;;17.77;11.30;;;;;;;4.79;72.35;101069.72;2079791;28;20181;-68
2021/12/28 02:55:47;;;;;;;16.37;12.37;;;;;;;4.77;72.99;101072.09;2080172;28;20191;-68
2021/12/28 02:56:48;;;;;;;16.63;12.07;;;;;;;4.78;72.79;101070.91;2079849;28;20194;-68
2021/12/28 02:57:52;;;;;;;20.97;13.57;;;;;;;4.79;72.91;101070.53;2080877;28;20680;-68
2021/12/28 02:58:53;;;;;;;19.20;13.98;;;;;;;4.76;72.50;101065.78;2080404;28;20179;-68
2021/12/28 02:59:53;;;;;;;21.45;15.50;;;;;;;4.75;72.56;101071.66;2080193;28;20549;-68
2021/12/28 03:01:02;;;;;;;22.60;16.40;;;;;;;4.74;72.59;101065.38;2079670;28;20176;-68
2021/12/28 03:02:03;;;;;;;24.15;15.63;;;;;;;4.24;72.81;101013.25;2082409;28;20171;-68
2021/12/28 03:03:07;;;;;;;22.03;15.80;;;;;;;4.79;72.67;101066.97;2081940;28;20207;-68
2021/12/28 03:04:08;;;;;;;22.73;15.95;;;;;;;4.21;72.79;100981.13;2082368;28;20171;-68
2021/12/28 03:05:08;;;;;;;23.23;15.53;;;;;;;4.35;72.69;101014.13;2082081;28;20194;-68
2021/12/28 03:06:12;;;;;;;22.70;15.33;;;;;;;4.76;72.43;101092.44;2082301;28;20537;-68
2021/12/28 03:07:12;;;;;;;22.67;16.00;;;;;;;4.25;72.64;100993.69;2082062;28;20191;-68
2021/12/28 03:08:14;;;;;;;22.53;16.23;;;;;;;4.76;72.59;101081.47;2082234;28;20179;-68
2021/12/28 03:09:18;;;;;;;22.60;16.52;;;;;;;4.75;72.41;101077.94;2082147;28;20203;-68
2021/12/28 03:10:19;;;;;;;25.90;17.13;;;;;;;4.78;73.32;101079.91;2080963;28;20191;-68
2021/12/28 03:11:20;;;;;;;24.67;17.53;;;;;;;4.79;73.12;101088.94;2081822;28;20181;-68
2021/12/28 03:12:21;;;;;;;24.70;18.10;;;;;;;4.21;71.95;100983.84;2082125;28;20678;-68
2021/12/28 03:13:27;;;;;;;26.87;19.60;;;;;;;4.83;72.05;101079.56;2082220;28;20605;-67
2021/12/28 03:14:27;;;;;;;29.35;20.17;;;;;;;4.78;71.69;101076.41;2081300;28;20176;-68
2021/12/28 03:15:28;;;;;;;27.70;19.70;;;;;;;4.76;71.84;101074.03;2081598;28;20184;-68
2021/12/28 03:16:31;;;;;;;27.17;19.47;;;;;;;4.76;72.10;101073.22;2081743;28;20661;-68
2021/12/28 03:17:31;;;;;;;25.80;18.05;;;;;;;4.16;72.20;101000.66;2082324;28;20181;-67
2021/12/28 03:18:33;;;;;;;27.03;19.13;;;;;;;4.07;72.50;100975.50;2081916;28;20180;-67
2021/12/28 03:19:35;;;;;;;26.92;19.42;;;;;;;4.13;72.70;100995.94;2082306;28;20672;-67
2021/12/28 03:20:36;;;;;;;27.27;19.00;;;;;;;4.66;72.71;101082.97;2080355;28;20181;-68
2021/12/28 03:21:38;;;;;;;28.93;19.37;;;;;;;4.67;72.45;101083.78;2082282;28;20708;-68
2021/12/28 03:22:39;;;;;;;28.83;19.38;;;;;;;4.58;72.09;101064.88;2081779;28;20465;-68
2021/12/28 03:23:40;;;;;;;27.43;19.80;;;;;;;4.71;72.26;101082.63;2082285;28;20218;-68
2021/12/28 03:24:41;;;;;;;28.40;20.20;;;;;;;4.71;71.97;101076.31;2081832;28;20172;-68
2021/12/28 03:25:41;;;;;;;26.43;19.03;;;;;;;3.65;72.01;100909.38;2082318;28;20204;-67
2021/12/28 03:26:42;;;;;;;29.13;19.27;;;;;;;4.70;72.59;101075.56;2081870;28;20187;-67
2021/12/28 03:27:43;;;;;;;26.20;19.20;;;;;;;4.59;72.59;101049.19;2082359;28;20319;-68
2021/12/28 03:28:45;;;;;;;26.77;19.33;;;;;;;4.76;72.38;101078.72;2081873;28;20387;-68
2021/12/28 03:29:45;;;;;;;29.83;20.83;;;;;;;3.74;72.27;100918.84;2081771;28;20179;-68
2021/12/28 03:30:48;;;;;;;29.80;21.10;;;;;;;4.73;71.88;101082.25;2080747;28;20188;-68
2021/12/28 03:31:48;;;;;;;28.85;20.15;;;;;;;4.63;71.96;101059.03;2082152;28;20180;-68
2021/12/28 03:32:51;;;;;;;29.43;19.93;;;;;;;4.70;71.72;101066.53;2081682;28;20180;-68
2021/12/28 03:33:54;;;;;;;26.90;19.52;;;;;;;4.66;72.24;101066.50;2082236;28;20642;-68
2021/12/28 03:34:54;;;;;;;30.42;20.92;;;;;;;4.64;72.17;101068.84;2081813;28;20194;-67
2021/12/28 03:35:55;;;;;;;26.33;19.00;;;;;;;4.64;72.02;101065.31;2082270;28;20181;-68
2021/12/28 03:36:56;;;;;;;29.25;19.23;;;;;;;4.57;72.56;101065.25;2081732;28;20209;-68
2021/12/28 03:37:57;;;;;;;25.53;17.93;;;;;;;4.62;72.28;101070.41;2082042;28;20165;-68
2021/12/28 03:38:59;;;;;;;24.57;18.20;;;;;;;4.60;72.54;101064.50;2081718;28;20279;-67
2021/12/28 03:39:59;;;;;;;25.08;18.25;;;;;;;4.59;72.52;101068.41;2081280;28;20278;-68
2021/12/28 03:41:02;;;;;;;25.13;18.53;;;;;;;4.57;72.58;101073.50;2081212;28;20715;-68
2021/12/28 03:42:05;;;;;;;27.33;18.13;;;;;;;4.54;72.33;101069.56;2081935;28;20631;-68
2021/12/28 03:43:05;;;;;;;25.42;17.55;;;;;;;4.56;72.45;101067.22;2081959;28;20180;-68
2021/12/28 03:44:06;;;;;;;24.97;17.13;;;;;;;4.26;72.15;101028.16;2081959;28;20200;-68
2021/12/28 03:45:09;;;;;;;25.43;17.80;;;;;;;4.48;72.66;101079.31;2081864;28;20165;-68
2021/12/28 03:46:10;;;;;;;25.25;17.92;;;;;;;4.48;71.95;101081.25;2081930;28;20203;-68
2021/12/28 03:47:10;;;;;;;25.02;17.20;;;;;;;4.15;72.33;101037.50;2081857;28;20188;-68
2021/12/28 03:48:11;;;;;;;24.73;18.17;;;;;;;4.44;72.29;101081.25;2081996;28;20183;-68
2021/12/28 03:49:11;;;;;;;24.50;17.00;;;;;;;4.32;71.60;101062.31;2081700;28;20189;-68
2021/12/28 03:50:12;;;;;;;23.33;17.00;;;;;;;4.41;71.85;101073.75;2081047;28;20180;-68
2021/12/28 03:51:13;;;;;;;26.30;17.07;;;;;;;4.40;71.60;101079.63;2081179;28;20179;-67
2021/12/28 03:52:14;;;;;;;22.35;16.27;;;;;;;4.40;71.39;101074.13;2081863;28;20638;-68
2021/12/28 03:53:14;;;;;;;22.33;16.00;;;;;;;4.37;71.71;101072.94;2081649;28;20176;-68
2021/12/28 03:54:15;;;;;;;21.70;14.33;;;;;;;3.38;71.58;100924.41;2082046;28;20594;-68
2021/12/28 03:55:15;;;;;;;20.77;15.30;;;;;;;4.29;71.56;101073.25;2081819;28;20184;-67
2021/12/28 03:56:16;;;;;;;25.83;16.57;;;;;;;4.25;71.68;101077.94;2081943;28;20200;-67
2021/12/28 03:57:17;;;;;;;23.33;16.40;;;;;;;3.96;72.07;101040.44;2081845;28;20177;-68
2021/12/28 03:58:18;;;;;;;24.10;16.53;;;;;;;3.93;71.59;101041.19;2081933;28;20667;-68
2021/12/28 03:59:18;;;;;;;26.50;17.70;;;;;;;4.13;71.66;101069.97;2081739;28;20183;-68
2021/12/28 04:00:21;;;;;;;27.10;17.80;;;;;;;4.05;71.65;101060.91;2080580;28;20180;-68
2021/12/28 04:01:25;;;;;;;23.90;17.05;;;;;;;3.32;72.04;100956.00;2081737;28;20229;-68
2021/12/28 04:02:26;;;;;;;25.67;17.02;;;;;;;4.12;71.55;101066.47;2081654;28;20181;-67
2021/12/28 04:03:26;;;;;;;26.33;17.57;;;;;;;4.08;71.68;101057.41;2081798;28;20226;-67
2021/12/28 04:04:27;;;;;;;24.73;16.77;;;;;;;2.92;71.55;100893.78;2081659;28;20173;-67
2021/12/28 04:05:27;;;;;;;23.73;17.40;;;;;;;4.00;71.76;101061.25;2080517;28;20209;-68
2021/12/28 04:06:30;;;;;;;22.70;16.50;;;;;;;3.62;71.96;101014.25;2081560;28;20178;-68
2021/12/28 04:07:30;;;;;;;22.63;16.50;;;;;;;3.91;71.56;101047.03;2081955;28;20594;-67
2021/12/28 04:08:31;;;;;;;25.27;17.50;;;;;;;3.98;71.42;101085.53;2081371;28;20263;-68
2021/12/28 04:09:57;;;;;;;24.93;17.53;;;;;;;3.99;71.71;101064.34;2081932;28;20182;-67
2021/12/28 04:11:02;;;;;;;24.75;16.52;;;;;;;3.98;71.45;101063.59;2080622;28;20217;-67
2021/12/28 04:12:03;;;;;;;25.10;16.88;;;;;;;3.64;71.51;101026.41;2081638;28;20550;-67
2021/12/28 04:13:04;;;;;;;25.80;17.70;;;;;;;3.91;71.84;101066.25;2080410;28;20176;-67
2021/12/28 04:14:07;;;;;;;23.80;17.10;;;;;;;3.91;71.70;101066.25;2081805;28;20168;-68
2021/12/28 04:15:10;;;;;;;28.38;19.30;;;;;;;3.89;71.78;101073.25;2081575;28;20955;-67
2021/12/28 04:16:11;;;;;;;25.65;17.90;;;;;;;3.86;71.45;101072.06;2081712;28;20179;-67
2021/12/28 04:17:12;;;;;;;24.47;17.43;;;;;;;3.22;71.40;100973.09;2080868;28;20189;-67
2021/12/28 04:18:14;;;;;;;23.73;16.43;;;;;;;3.85;71.34;101064.25;2081184;28;20418;-68
2021/12/28 04:19:14;;;;;;;23.48;16.42;;;;;;;3.84;71.59;101073.63;2081002;28;20184;-68
2021/12/28 04:20:18;;;;;;;22.80;15.87;;;;;;;3.82;71.82;101078.69;2080260;28;20474;-67
2021/12/28 04:21:19;;;;;;;23.80;15.95;;;;;;;3.70;72.21;101057.78;2081213;28;20627;-68
2021/12/28 04:22:20;;;;;;;25.23;16.80;;;;;;;3.77;71.89;101076.28;2081656;28;20288;-68
2021/12/28 04:23:21;;;;;;;23.23;15.85;;;;;;;3.74;71.78;101077.81;2081686;28;20181;-68
2021/12/28 04:24:21;;;;;;;22.20;16.23;;;;;;;2.30;71.33;100850.00;2081571;28;20236;-68
2021/12/28 04:25:22;;;;;;;22.23;16.03;;;;;;;3.59;71.45;101050.66;2081747;28;20721;-67
2021/12/28 04:26:26;;;;;;;24.60;16.77;;;;;;;3.72;71.75;101069.19;2081458;28;20184;-68
2021/12/28 04:27:26;;;;;;;25.63;17.75;;;;;;;3.68;72.08;101070.31;2081801;28;20601;-67
2021/12/28 04:28:27;;;;;;;22.27;16.43;;;;;;;3.68;71.87;101076.59;2081590;28;20176;-67
2021/12/28 04:29:27;;;;;;;22.73;16.20;;;;;;;3.66;71.38;101073.44;2073666;28;20669;-67
2021/12/28 04:30:28;;;;;;;20.93;14.87;;;;;;;3.65;71.93;101069.09;2071716;28;20188;-67
2021/12/28 04:31:28;;;;;;;21.07;15.00;;;;;;;3.52;71.77;101054.09;2073582;28;20183;-67
2021/12/28 04:32:29;;;;;;;21.67;15.57;;;;;;;3.65;71.64;101079.28;2073273;28;20479;-68
2021/12/28 04:33:30;;;;;;;20.27;14.80;;;;;;;3.64;71.43;101081.22;2073574;28;20550;-68
2021/12/28 04:34:31;;;;;;;20.40;14.60;;;;;;;3.38;71.32;101042.19;2072361;28;20176;-67
2021/12/28 04:35:32;;;;;;;19.33;13.30;;;;;;;3.59;72.19;101076.09;2073063;28;20176;-67
2021/12/28 04:36:32;;;;;;;16.67;12.43;;;;;;;3.58;71.51;101071.78;2073186;28;20177;-68
2021/12/28 04:37:33;;;;;;;17.47;13.13;;;;;;;3.60;71.78;101071.41;2073644;28;20269;-68
2021/12/28 04:38:34;;;;;;;20.30;13.27;;;;;;;3.12;71.96;100992.94;2073104;28;20321;-68
2021/12/28 04:39:35;;;;;;;20.50;13.65;;;;;;;3.61;71.84;101071.03;2073380;28;20177;-68
2021/12/28 04:40:36;;;;;;;20.50;13.60;;;;;;;3.29;71.72;101017.81;2072699;28;20183;-68
2021/12/28 04:41:37;;;;;;;17.63;13.17;;;;;;;3.51;71.51;101058.00;2081636;28;20213;-68
2021/12/28 04:42:39;;;;;;;16.83;12.23;;;;;;;3.58;72.11;101070.97;2081182;28;20179;-68
2021/12/28 04:43:40;;;;;;;19.50;13.52;;;;;;;3.57;72.12;101074.88;2081738;28;20183;-67
2021/12/28 04:44:40;;;;;;;19.77;13.97;;;;;;;3.56;72.00;101067.81;2081252;28;20678;-67
2021/12/28 04:45:41;;;;;;;18.73;13.33;;;;;;;3.48;72.35;101066.97;2081659;28;20173;-68
2021/12/28 04:46:41;;;;;;;18.50;12.50;;;;;;;3.56;71.94;101067.81;2081279;28;20191;-68